createdAt,value
2022-11-02T00:02:17.719Z,31.98
2022-11-02T00:04:45.020Z,34.83
2022-11-02T00:07:12.702Z,39.72
2022-11-02T00:09:40.507Z,36.47
2022-11-02T00:12:07.897Z,33.13
2022-11-02T00:14:35.204Z,31.92
2022-11-02T00:17:02.836Z,34.10
2022-11-02T00:19:31.063Z,37.65
2022-11-02T00:21:59.261Z,33.08
2022-11-02T00:24:26.687Z,30.67
2022-11-02T00:26:55.326Z,41.70
2022-11-02T00:29:24.536Z,33.58
2022-11-02T00:31:52.138Z,36.78
2022-11-02T00:34:19.469Z,35.80
2022-11-02T00:36:49.599Z,34.70
2022-11-02T00:39:20.691Z,35.72
2022-11-02T00:41:47.844Z,33.08
2022-11-02T00:44:15.347Z,33.42
2022-11-02T00:46:42.962Z,35.80
2022-11-02T00:49:10.780Z,38.25
2022-11-02T00:51:38.774Z,34.83
2022-11-02T00:54:06.233Z,34.63
2022-11-02T00:56:34.208Z,29.63
2022-11-02T00:59:04.247Z,34.85
2022-11-02T01:01:32.512Z,29.40
2022-11-02T01:04:00.402Z,36.80
2022-11-02T01:06:28.051Z,31.45
2022-11-02T01:08:55.630Z,33.88
2022-11-02T01:11:25.231Z,30.02
2022-11-02T01:13:53.174Z,33.33
2022-11-02T01:16:41.376Z,35.45
2022-11-02T01:19:08.990Z,30.63
2022-11-02T01:21:36.364Z,39.60
2022-11-02T01:24:04.106Z,38.58
2022-11-02T01:26:32.657Z,38.13
2022-11-02T01:28:59.959Z,33.63
2022-11-02T01:31:28.180Z,42.28
2022-11-02T01:33:55.682Z,47.78
2022-11-02T01:38:56.056Z,55.20
2022-11-02T01:41:23.609Z,45.45
2022-11-02T01:43:55.510Z,45.08
2022-11-02T01:46:44.645Z,39.85
2022-11-02T01:49:16.675Z,41.30
2022-11-02T01:51:57.727Z,53.00
2022-11-02T01:54:38.191Z,45.25
2022-11-02T01:57:08.512Z,57.85
2022-11-02T01:59:43.793Z,56.50
2022-11-02T02:02:18.689Z,55.88
2022-11-02T02:04:51.317Z,56.22
2022-11-02T02:07:19.787Z,65.45
2022-11-02T02:09:50.390Z,59.42
2022-11-02T02:12:19.974Z,55.75
2022-11-02T02:14:47.718Z,53.65
2022-11-02T02:17:37.614Z,50.13
2022-11-02T02:20:35.275Z,49.72
2022-11-02T02:23:05.439Z,44.63
2022-11-02T02:26:05.939Z,45.33
2022-11-02T02:28:39.686Z,39.60
2022-11-02T02:34:21.325Z,37.33
2022-11-02T02:37:30.167Z,30.65
2022-11-02T02:40:03.289Z,38.65
2022-11-02T02:42:41.363Z,39.85
2022-11-02T02:45:32.346Z,37.33
2022-11-02T02:48:10.322Z,34.50
2022-11-02T02:51:13.225Z,29.05
2022-11-02T02:53:57.832Z,44.92
2022-11-02T02:56:30.703Z,37.58
2022-11-02T02:59:03.014Z,46.03
2022-11-02T03:01:32.321Z,40.05
2022-11-02T03:03:59.817Z,36.95
2022-11-02T03:06:32.807Z,37.55
2022-11-02T03:09:19.317Z,35.83
2022-11-02T03:11:57.880Z,35.15
2022-11-02T03:15:11.339Z,39.78
2022-11-02T03:18:11.673Z,30.00
2022-11-02T03:21:23.046Z,37.17
2022-11-02T03:24:05.002Z,35.47
2022-11-02T03:26:46.786Z,33.45
2022-11-02T03:29:22.187Z,33.83
2022-11-02T03:32:00.643Z,37.78
2022-11-02T03:34:38.820Z,36.88
2022-11-02T03:37:20.332Z,38.45
2022-11-02T03:39:59.302Z,33.13
2022-11-02T03:42:31.244Z,37.28
2022-11-02T03:45:11.877Z,25.98
2022-11-02T03:47:41.052Z,34.72
2022-11-02T03:50:14.181Z,30.20
2022-11-02T03:52:45.562Z,31.35
2022-11-02T03:55:26.165Z,30.63
2022-11-02T03:57:54.792Z,31.48
2022-11-02T04:00:29.815Z,31.67
2022-11-02T04:03:07.252Z,27.85
2022-11-02T04:05:39.114Z,29.98
2022-11-02T04:08:45.380Z,24.52
2022-11-02T04:11:31.963Z,27.00
2022-11-02T04:14:23.031Z,33.20
2022-11-02T04:17:11.122Z,33.15
2022-11-02T04:19:41.391Z,39.45
2022-11-02T04:22:30.558Z,34.20
2022-11-02T04:25:21.104Z,38.45
2022-11-02T04:28:14.341Z,32.97
2022-11-02T04:30:48.632Z,34.50
2022-11-02T04:33:34.743Z,33.80
2022-11-02T04:36:09.592Z,34.50
2022-11-02T04:38:42.688Z,34.22
2022-11-02T04:41:44.801Z,34.38
2022-11-02T04:44:26.288Z,44.05
2022-11-02T04:47:03.094Z,38.75
2022-11-02T04:49:32.702Z,36.08
2022-11-02T04:51:59.878Z,37.25
2022-11-02T04:54:29.401Z,37.58
2022-11-02T04:57:00.991Z,34.80
2022-11-02T04:59:29.836Z,37.20
2022-11-02T05:01:58.524Z,38.28
2022-11-02T05:04:25.921Z,39.40
2022-11-02T05:06:56.396Z,35.83
2022-11-02T05:11:54.332Z,32.50
2022-11-02T05:14:21.893Z,37.33
2022-11-02T05:16:49.341Z,38.60
2022-11-02T05:19:16.555Z,33.17
2022-11-02T05:21:44.438Z,35.78
2022-11-02T05:24:12.431Z,37.50
2022-11-02T05:26:39.887Z,41.67
2022-11-02T05:29:09.612Z,40.80
2022-11-02T05:31:37.559Z,45.28
2022-11-02T05:34:04.872Z,45.72
2022-11-02T05:36:32.143Z,51.35
2022-11-02T05:38:59.571Z,35.03
2022-11-02T05:41:27.361Z,43.15
2022-11-02T05:43:56.438Z,40.05
2022-11-02T05:46:25.547Z,46.25
2022-11-02T05:48:52.923Z,45.90
2022-11-02T05:51:20.122Z,54.65
2022-11-02T05:53:47.227Z,48.42
2022-11-02T05:56:14.872Z,47.28
2022-11-02T05:58:42.368Z,50.90
2022-11-02T06:01:10.731Z,46.40
2022-11-02T06:03:38.141Z,57.85
2022-11-02T06:06:07.878Z,36.50
2022-11-02T06:08:36.148Z,294.50
2022-11-02T06:11:06.957Z,198.38
2022-11-02T06:13:34.604Z,79.97
2022-11-02T06:16:03.842Z,55.95
2022-11-02T06:18:34.634Z,55.75
2022-11-02T06:21:02.355Z,67.43
2022-11-02T06:23:30.230Z,61.35
2022-11-02T06:25:59.416Z,73.40
2022-11-02T06:28:27.788Z,73.07
2022-11-02T06:30:55.539Z,89.40
2022-11-02T06:33:23.330Z,87.70
2022-11-02T06:35:52.621Z,74.85
2022-11-02T06:38:20.403Z,91.85
2022-11-02T06:40:55.867Z,68.55
2022-11-02T06:43:24.268Z,82.80
2022-11-02T06:45:55.921Z,67.55
2022-11-02T06:48:23.606Z,59.03
2022-11-02T06:50:51.213Z,62.95
2022-11-02T06:53:18.777Z,77.45
2022-11-02T06:55:51.359Z,63.08
2022-11-02T06:58:18.627Z,52.70
2022-11-02T07:00:45.891Z,57.08
2022-11-02T07:03:13.417Z,48.10
2022-11-02T07:05:40.739Z,51.53
2022-11-02T07:08:07.952Z,43.60
2022-11-02T07:10:36.025Z,49.42
2022-11-02T07:13:04.124Z,50.28
2022-11-02T07:15:31.582Z,40.28
2022-11-02T07:17:59.079Z,53.22
2022-11-02T07:20:26.577Z,45.55
2022-11-02T07:22:56.703Z,37.63
2022-11-02T07:25:25.403Z,47.00
2022-11-02T07:27:53.377Z,41.05
2022-11-02T07:30:21.064Z,44.85
2022-11-02T07:32:48.580Z,44.92
2022-11-02T07:35:17.849Z,49.17
2022-11-02T07:37:45.247Z,40.35
2022-11-02T07:40:16.107Z,45.75
2022-11-02T07:42:49.118Z,39.80
2022-11-02T07:45:21.899Z,42.08
2022-11-02T07:47:50.039Z,42.88
2022-11-02T07:50:19.843Z,49.75
2022-11-02T07:52:49.347Z,38.22
2022-11-02T07:55:18.549Z,46.08
2022-11-02T07:57:57.897Z,39.20
2022-11-02T08:00:27.181Z,40.92
2022-11-02T08:02:55.907Z,36.00
2022-11-02T08:05:24.038Z,37.42
2022-11-02T08:07:58.919Z,42.90
2022-11-02T08:10:26.848Z,35.45
2022-11-02T08:12:54.891Z,38.15
2022-11-02T08:15:22.358Z,49.53
2022-11-02T08:18:04.061Z,40.15
2022-11-02T08:20:32.810Z,40.20
2022-11-02T08:23:00.018Z,41.70
2022-11-02T08:25:27.516Z,41.70
2022-11-02T08:27:59.905Z,41.38
2022-11-02T08:30:29.054Z,45.13
2022-11-02T08:33:02.623Z,40.40
2022-11-02T08:35:29.931Z,37.45
2022-11-02T08:37:58.271Z,43.78
2022-11-02T08:40:26.324Z,40.80
2022-11-02T08:43:00.936Z,40.95
2022-11-02T08:45:35.105Z,42.08
2022-11-02T08:48:10.086Z,39.22
2022-11-02T08:50:37.561Z,36.58
2022-11-02T08:53:05.499Z,42.80
2022-11-02T08:55:32.707Z,35.10
2022-11-02T08:58:00.708Z,36.58
2022-11-02T09:00:32.974Z,33.13
2022-11-02T09:03:08.896Z,27.08
2022-11-02T09:05:39.201Z,34.60
2022-11-02T09:08:09.997Z,28.92
2022-11-02T09:10:37.958Z,28.92
2022-11-02T09:13:07.875Z,23.95
2022-11-02T09:15:36.992Z,26.10
2022-11-02T09:18:06.088Z,25.30
2022-11-02T09:20:33.800Z,20.02
2022-11-02T09:23:01.128Z,25.38
2022-11-02T09:25:28.971Z,20.05
2022-11-02T09:27:58.004Z,20.45
2022-11-02T09:30:26.961Z,14.00
2022-11-02T09:33:02.769Z,13.60
2022-11-02T09:35:32.800Z,10.70
2022-11-02T09:38:00.299Z,11.35
2022-11-02T09:40:52.215Z,12.38
2022-11-02T09:43:32.091Z,13.18
2022-11-02T09:46:06.676Z,19.13
2022-11-02T09:48:45.516Z,9.82
2022-11-02T09:51:15.404Z,10.63
2022-11-02T09:53:53.179Z,11.40
2022-11-02T09:56:20.527Z,12.63
2022-11-02T09:58:56.415Z,14.05
2022-11-02T10:01:38.543Z,12.35
2022-11-02T10:04:06.006Z,13.23
2022-11-02T10:06:38.173Z,9.82
2022-11-02T10:09:40.728Z,9.35
2022-11-02T10:12:35.497Z,7.22
2022-11-02T10:15:09.547Z,16.35
2022-11-02T10:17:40.072Z,10.88
2022-11-02T10:20:28.475Z,9.23
2022-11-02T10:23:03.632Z,8.00
2022-11-02T10:25:31.124Z,9.68
2022-11-02T10:28:10.390Z,8.32
2022-11-02T10:30:38.564Z,9.10
2022-11-02T10:33:16.812Z,9.63
2022-11-02T10:36:18.474Z,9.32
2022-11-02T10:39:09.986Z,7.28
2022-11-02T10:42:14.557Z,11.98
2022-11-02T10:45:08.861Z,9.75
2022-11-02T10:48:01.237Z,17.35
2022-11-02T10:50:46.606Z,7.32
2022-11-02T10:56:19.917Z,7.38
2022-11-02T10:58:58.486Z,9.48
2022-11-02T11:01:26.841Z,7.32
2022-11-02T11:04:20.709Z,11.10
2022-11-02T11:06:48.269Z,11.38
2022-11-02T11:09:15.751Z,14.30
2022-11-02T11:11:54.558Z,10.35
2022-11-02T11:20:33.741Z,9.95
2022-11-02T11:23:10.566Z,8.77
2022-11-02T11:25:40.500Z,7.63
2022-11-02T11:28:52.210Z,10.98
2022-11-02T11:31:19.978Z,12.45
2022-11-02T11:33:50.928Z,10.13
2022-11-02T11:36:28.407Z,7.75
2022-11-02T11:39:00.167Z,10.20
2022-11-02T11:41:28.358Z,8.93
2022-11-02T11:43:55.714Z,9.73
2022-11-02T11:46:23.749Z,7.78
2022-11-02T11:48:54.912Z,7.07
2022-11-02T11:51:35.343Z,8.25
2022-11-02T11:54:31.212Z,11.10
2022-11-02T11:57:29.681Z,11.95
2022-11-02T12:00:01.219Z,9.02
2022-11-02T12:02:38.003Z,10.70
2022-11-02T12:05:21.079Z,11.52
2022-11-02T12:07:59.403Z,6.53
2022-11-02T12:10:56.668Z,9.10
2022-11-02T12:14:01.619Z,4.93
2022-11-02T12:16:56.553Z,12.80
2022-11-02T12:19:29.762Z,7.70
2022-11-02T12:22:29.288Z,5.72
2022-11-02T12:25:15.566Z,16.55
2022-11-02T12:27:52.774Z,11.98
2022-11-02T12:30:38.744Z,13.77
2022-11-02T12:34:13.916Z,18.27
2022-11-02T12:37:31.756Z,21.23
2022-11-02T12:40:01.689Z,21.92
2022-11-02T12:42:32.320Z,21.00
2022-11-02T12:45:18.277Z,16.25
2022-11-02T12:47:48.252Z,16.13
2022-11-02T12:50:15.586Z,18.17
2022-11-02T12:53:06.460Z,16.15
2022-11-02T12:55:38.947Z,18.33
2022-11-02T12:58:11.271Z,10.48
2022-11-02T13:00:43.139Z,11.65
2022-11-02T13:03:55.450Z,10.50
2022-11-02T13:06:30.546Z,10.32
2022-11-02T13:09:19.276Z,9.93
2022-11-02T13:11:53.640Z,11.75
2022-11-02T13:14:24.450Z,11.43
2022-11-02T13:17:11.860Z,14.25
2022-11-02T13:19:51.228Z,9.20
2022-11-02T13:22:21.416Z,11.82
2022-11-02T13:24:53.354Z,10.13
2022-11-02T13:27:36.493Z,14.05
2022-11-02T13:30:16.131Z,16.83
2022-11-02T13:33:01.439Z,10.88
2022-11-02T13:35:37.836Z,11.25
2022-11-02T13:41:35.301Z,13.68
2022-11-02T13:44:20.498Z,11.75
2022-11-02T13:47:15.509Z,9.50
2022-11-02T13:49:54.820Z,13.25
2022-11-02T13:52:49.378Z,11.77
2022-11-02T13:55:22.197Z,13.15
2022-11-02T13:57:59.228Z,12.27
2022-11-02T14:00:26.256Z,11.15
2022-11-02T14:03:00.654Z,11.10
2022-11-02T14:05:35.825Z,14.43
2022-11-02T14:08:07.991Z,11.15
2022-11-02T14:10:41.031Z,14.40
2022-11-02T14:13:17.402Z,11.77
2022-11-02T14:15:44.541Z,14.50
2022-11-02T14:18:27.344Z,16.92
2022-11-02T14:20:54.489Z,17.77
2022-11-02T14:23:36.551Z,12.98
2022-11-02T14:26:03.951Z,13.98
2022-11-02T14:28:34.131Z,15.65
2022-11-02T14:31:04.328Z,12.82
2022-11-02T14:34:17.646Z,15.18
2022-11-02T14:37:20.242Z,13.82
2022-11-02T14:40:11.223Z,14.50
2022-11-02T14:43:00.018Z,15.68
2022-11-02T14:45:52.664Z,15.23
2022-11-02T14:48:20.306Z,11.88
2022-11-02T14:51:14.609Z,12.43
2022-11-02T14:53:42.424Z,12.75
2022-11-02T14:56:09.852Z,15.00
2022-11-02T14:58:48.469Z,10.63
2022-11-02T15:01:17.004Z,10.27
2022-11-02T15:03:48.282Z,16.95
2022-11-02T15:06:23.746Z,8.68
2022-11-02T15:09:04.255Z,10.68
2022-11-02T15:11:49.815Z,12.57
2022-11-02T15:14:42.821Z,11.88
2022-11-02T15:17:13.114Z,11.63
2022-11-02T15:19:44.340Z,16.10
2022-11-02T15:22:36.571Z,20.92
2022-11-02T15:25:16.149Z,23.63
2022-11-02T15:27:45.379Z,14.35
2022-11-02T15:30:23.909Z,14.40
2022-11-02T15:33:06.994Z,11.30
2022-11-02T15:35:37.782Z,11.75
2022-11-02T15:38:29.517Z,11.85
2022-11-02T15:41:06.250Z,8.50
2022-11-02T15:43:52.571Z,11.50
2022-11-02T15:46:30.112Z,11.10
2022-11-02T15:49:14.613Z,7.43
2022-11-02T15:52:03.391Z,10.65
2022-11-02T15:54:33.597Z,14.02
2022-11-02T15:57:15.569Z,14.00
2022-11-02T16:00:08.241Z,15.15
2022-11-02T16:02:42.405Z,8.25
2022-11-02T16:05:20.926Z,37.75
2022-11-02T16:08:09.948Z,34.05
2022-11-02T16:10:38.495Z,18.80
2022-11-02T16:13:17.322Z,14.48
2022-11-02T16:15:46.273Z,15.20
2022-11-02T16:18:29.351Z,15.73
2022-11-02T16:21:02.547Z,10.52
2022-11-02T16:23:47.624Z,7.97
2022-11-02T16:26:22.149Z,9.80
2022-11-02T16:28:52.727Z,7.47
2022-11-02T16:31:31.268Z,12.00
2022-11-02T16:34:01.468Z,11.93
2022-11-02T16:36:32.345Z,12.25
2022-11-02T16:39:02.462Z,8.95
2022-11-02T16:41:32.118Z,8.55
2022-11-02T16:44:08.195Z,9.93
2022-11-02T16:46:42.440Z,9.52
2022-11-02T16:49:16.667Z,13.20
2022-11-02T16:51:59.958Z,8.30
2022-11-02T16:57:11.487Z,11.38
2022-11-02T16:59:56.006Z,11.27
2022-11-02T17:02:39.612Z,26.85
2022-11-02T17:05:17.084Z,19.98
2022-11-02T17:07:50.616Z,9.25
2022-11-02T17:10:26.230Z,10.15
2022-11-02T17:12:56.958Z,10.75
2022-11-02T17:15:29.704Z,9.85
2022-11-02T17:18:09.868Z,8.73
2022-11-02T17:20:39.618Z,7.47
2022-11-02T17:23:27.796Z,13.35
2022-11-02T17:26:14.909Z,10.15
2022-11-02T17:28:45.251Z,8.77
2022-11-02T17:31:32.709Z,8.80
2022-11-02T17:34:16.513Z,12.95
2022-11-02T17:36:49.972Z,14.85
2022-11-02T17:39:19.883Z,11.27
2022-11-02T17:42:11.842Z,9.20
2022-11-02T17:44:39.691Z,8.95
2022-11-02T17:47:13.475Z,10.75
2022-11-02T17:49:41.019Z,8.43
2022-11-02T17:52:13.320Z,12.55
2022-11-02T17:54:40.955Z,11.80
2022-11-02T17:57:16.195Z,9.60
2022-11-02T17:59:44.073Z,11.70
2022-11-02T18:02:13.944Z,12.60
2022-11-02T18:04:41.411Z,12.57
2022-11-02T18:07:09.390Z,12.77
2022-11-02T18:09:36.617Z,12.02
2022-11-02T18:12:04.094Z,10.25
2022-11-02T18:14:31.552Z,9.52
2022-11-02T18:16:58.676Z,11.45
2022-11-02T18:19:25.895Z,13.95
2022-11-02T18:21:53.356Z,15.30
2022-11-02T18:24:20.541Z,12.85
2022-11-02T18:26:51.627Z,13.27
2022-11-02T18:29:22.450Z,9.70
2022-11-02T18:31:51.014Z,17.95
2022-11-02T18:34:18.177Z,22.77
2022-11-02T18:36:45.322Z,24.17
2022-11-02T18:39:12.614Z,11.73
2022-11-02T18:41:40.545Z,9.98
2022-11-02T18:44:13.794Z,17.95
2022-11-02T18:46:42.168Z,10.15
2022-11-02T18:49:09.973Z,13.43
2022-11-02T18:51:37.378Z,10.40
2022-11-02T18:54:06.137Z,16.98
2022-11-02T18:56:33.756Z,12.27
2022-11-02T18:59:01.629Z,13.10
2022-11-02T19:01:28.878Z,11.75
2022-11-02T19:03:58.519Z,14.00
2022-11-02T19:06:45.779Z,11.98
2022-11-02T19:09:21.401Z,17.23
2022-11-02T19:11:54.591Z,15.45
2022-11-02T19:14:23.181Z,15.45
2022-11-02T19:16:50.425Z,15.82
2022-11-02T19:19:17.738Z,14.85
2022-11-02T19:21:45.106Z,14.13
2022-11-02T19:24:12.430Z,16.58
2022-11-02T19:26:39.656Z,17.95
2022-11-02T19:29:07.079Z,14.95
2022-11-02T19:31:35.678Z,15.02
2022-11-02T19:34:04.189Z,14.27
2022-11-02T19:36:32.229Z,86.07
2022-11-02T19:39:00.263Z,159.65
2022-11-02T19:41:27.533Z,38.92
2022-11-02T19:43:54.643Z,18.17
2022-11-02T19:46:22.822Z,12.80
2022-11-02T19:48:50.740Z,12.88
2022-11-02T19:51:23.546Z,13.75
2022-11-02T19:53:53.036Z,12.43
2022-11-02T19:56:21.657Z,12.85
2022-11-02T19:58:51.221Z,13.10
2022-11-02T20:01:27.609Z,11.85
2022-11-02T20:03:55.911Z,11.13
2022-11-02T20:06:37.450Z,15.18
2022-11-02T20:09:07.066Z,14.57
2022-11-02T20:11:36.223Z,14.95
2022-11-02T20:14:05.151Z,14.82
2022-11-02T20:16:32.599Z,14.60
2022-11-02T20:19:00.039Z,14.80
2022-11-02T20:21:35.686Z,14.10
2022-11-02T20:24:08.025Z,13.10
2022-11-02T20:26:37.002Z,15.68
2022-11-02T20:29:06.500Z,17.15
2022-11-02T20:31:35.836Z,14.35
2022-11-02T20:34:04.883Z,15.35
2022-11-02T20:36:32.254Z,12.43
2022-11-02T20:38:59.726Z,12.07
2022-11-02T20:41:27.591Z,19.05
2022-11-02T20:43:55.946Z,13.77
2022-11-02T20:46:39.065Z,23.77
2022-11-02T20:49:21.009Z,19.90
2022-11-02T20:51:55.577Z,14.25
2022-11-02T20:54:23.011Z,15.07
2022-11-02T20:56:50.574Z,17.38
2022-11-02T20:59:18.323Z,16.27
2022-11-02T21:01:46.248Z,17.88
2022-11-02T21:04:32.144Z,16.13
2022-11-02T21:06:59.795Z,15.60
2022-11-02T21:09:27.107Z,13.02
2022-11-02T21:12:12.854Z,13.07
2022-11-02T21:14:40.123Z,11.65
2022-11-02T21:17:07.344Z,13.52
2022-11-02T21:19:34.995Z,13.50
2022-11-02T21:22:02.911Z,13.35
2022-11-02T21:24:30.402Z,12.43
2022-11-02T21:26:57.682Z,16.98
2022-11-02T21:29:25.065Z,13.30
2022-11-02T21:31:52.256Z,28.63
2022-11-02T21:34:21.255Z,12.98
2022-11-02T21:36:49.010Z,16.63
2022-11-02T21:39:16.784Z,16.90
2022-11-02T21:41:44.321Z,19.17
2022-11-02T21:44:12.153Z,17.42
2022-11-02T21:46:39.705Z,18.20
2022-11-02T21:49:07.346Z,16.23
2022-11-02T21:51:36.317Z,18.10
2022-11-02T21:54:06.820Z,17.10
2022-11-02T21:56:36.070Z,16.30
2022-11-02T21:59:05.420Z,13.82
2022-11-02T22:01:47.271Z,15.50
2022-11-02T22:04:19.646Z,14.73
2022-11-02T22:06:48.206Z,18.70
2022-11-02T22:09:15.975Z,16.83
2022-11-02T22:11:45.162Z,20.67
2022-11-02T22:14:13.756Z,16.58
2022-11-02T22:16:42.710Z,18.30
2022-11-02T22:19:14.700Z,22.75
2022-11-02T22:21:44.973Z,16.98
2022-11-02T22:24:12.661Z,16.60
2022-11-02T22:26:40.954Z,15.82
2022-11-02T22:29:09.592Z,20.77
2022-11-02T22:31:41.923Z,16.65
2022-11-02T22:34:11.651Z,16.95
2022-11-02T22:36:42.061Z,22.67
2022-11-02T22:39:12.892Z,17.05
2022-11-02T22:41:42.587Z,17.02
2022-11-02T22:44:12.405Z,18.23
2022-11-02T22:46:42.388Z,18.35
2022-11-02T22:49:11.123Z,19.50
2022-11-02T22:51:41.275Z,18.90
2022-11-02T22:54:11.936Z,19.33
2022-11-02T22:56:39.386Z,20.90
2022-11-02T22:59:07.223Z,15.20
2022-11-02T23:01:36.382Z,20.00
2022-11-02T23:04:05.159Z,19.02
2022-11-02T23:06:33.603Z,21.45
2022-11-02T23:09:01.900Z,21.55
2022-11-02T23:11:33.107Z,14.20
2022-11-02T23:14:04.733Z,19.25
2022-11-02T23:16:43.900Z,20.38
2022-11-02T23:19:31.330Z,21.15
2022-11-02T23:22:26.590Z,16.63
2022-11-02T23:25:15.207Z,15.98
2022-11-02T23:28:03.894Z,18.02
2022-11-02T23:30:55.754Z,14.95
2022-11-02T23:33:25.589Z,18.17
2022-11-02T23:36:11.123Z,18.40
2022-11-02T23:39:04.225Z,17.17
2022-11-02T23:41:33.278Z,15.73
2022-11-02T23:44:14.173Z,16.58
2022-11-02T23:46:43.255Z,14.75
2022-11-02T23:49:11.721Z,20.42
2022-11-02T23:51:58.026Z,14.25
2022-11-02T23:54:44.394Z,17.45
2022-11-02T23:57:13.185Z,17.73
2022-11-02T23:59:40.728Z,18.60
